Terminal Aerodrome Forecast
Issued by NWS Boston, MA

Home | Current Version | Previous Version | Text Only | Print | Product List | Glossary On
Versions: 1 2 3 4 5 6 7 8 9 10 11 12 13 14 15 16 17 18 19 20 21 22 23
000
FTUS41 KBOX 181120
TAFBOS
TAF
KBOS 181120Z 1812/1918 17005KT P6SM VCSH OVC050
     FM181400 16006KT P6SM -SHRA OVC050
     FM181800 16010G21KT 4SM -SHRA OVC030
     FM182000 17010G22KT 2SM -SHRA BR VCTS OVC010CB
     FM190000 18011G21KT 2SM SHRA BR OVC008
     FM190400 19010G18KT 4SM -SHRA BR OVC008
     FM190800 19008KT 3SM BR BKN010
     FM191300 20007KT 5SM BR BKN025=

USA.gov is the U.S. government's official web portal to all federal, state and local government web resources and services.